Portada
METAR-TAF:

METAR-TAF

Aeropuertos :

Aeropuerto Internacional Hato

Curazao, Antillas Neerlandesas

latitud: 12-12N, longitud: 068-58W, altitud: 9 m

Observación

El informe se hizo hace 16 minutos, a las 06:00 UTC
Viento 12 kt del este-sureste
Temperatura 27°C
Humedad 79%
Presión 1014 hPa
Cielo nuboso a una altura de 2000 ft

METAR: TNCC 240600Z AUTO 11012KT //// BKN020 27/23 Q1014 NOSIG

Hora: 02:16 (06:16 UTC)

Pronóstico

El informe se hizo hace 2 horas y 16 minutos, a las 04:00 UTC
Pronóstico válido del 24 a las 06 UTC al 25 a las 06 UTC
Viento 12 kt del este-sureste
Visibilidad 10 km o más
Nubes dispersas a una altura de 1800 ft

TAF: TNCC 240400Z 2406/2506 11012KT 9999 SCT018

Observaciones y pronósticos meteorológicos de más de 4000 aeropuertos (mensajes METAR y TAF).

Los puntos amarillos y rojos representan las estaciones disponibles.

Ponga el ratón en el punto deseado para ver el nombre de la estación.

Haga clic para ver las observaciones y los pronósticos meteorológicos.

Para cambiar el mapa : haga clic en los botones verdes con una cruz de color negro para hacer un zoom, en el botón verde con un guión para alejar o en las flechas verdes para mapas adyacentes.


METAR-TAF: